Muir Woods, California
Current Conditions -  °F | °C
As of 5:55 AM on Saturday 25 Oct 2014 (Local Time) from KDVO Reporting Station
Haze Haze  
Wind Chill: 59°   Ceiling: 3000
Heat Index: 59°   Visibility: 3mi
Dew Point: 57°   Wind: 6mph
Humidity: 94%   Direction: 200°SSW
Pressure: 29.92"   Gusts: NA
Location:  37.8835°N, 122.554°W
Report Text: KDVO 251255Z AUTO 20005KT 3SM BR FEW012 SCT022 BKN030 15/14 A2992 RMK AO2
Loading
Personal Weather Stations






























Interactive Weather Map
Tropical Storm Tracking
New forecast layout! Learn more

10-Day Weather Forecast

Advertisements
Track Severe Weather on mobile